• Join FlightAware (Why Join?)
  • Login
  • US Flag 
 
10:54PM EST


 

Airport Tracker/Info


-or-


 

Live Flight TrackerFlight Track Log ✈ UAL4336 ✈ 04-Sep-2014 ✈ KIAH - KLFT

Flight Track Log - Related Links

Times and Time Zones

All times are in EDT time to prevent confusion due to time zone crossing. See the UAL4336 flight status page for this flight to view local times or setup timezone preferences in your user account.

Time Position Orientation Groundspeed Altitude Reporting Facility
EDT Latitude Longitude Course Direction KTS MPH feet Rate Location/Type
08:11AM 29.9639 -95.3433 69° East 150 173 1,100  Level Houston Center
08:12AM 29.9281 -95.2969 132° Southeast 199 229 3,400 1,620 Climbing Houston Center
08:13AM 29.9136 -95.2742 126° Southeast 191 220 3,900 600 Climbing Houston Center
08:13AM 29.8894 -95.2414 130° Southeast 261 300 4,000 960 Climbing Houston Center
08:14AM 30.0115 -94.9917 90° East  Level Estimated
08:14AM 29.8636 -95.1997 126° Southeast 238 274 4,900  Level Houston Center
08:14AM 29.8497 -95.1764 124° Southeast 254 292 5,500 2,460 Climbing Houston Center
08:15AM 29.8167 -94.9436 90° East  Level FlightAware Approximate
08:15AM 29.8233 -95.1314 124° Southeast 250 288 7,500  Level Houston Center
08:15AM 29.8231 -95.1147 91° East 257 296 8,200 2,520 Climbing Houston Center
08:16AM 29.8498 -94.8339 69° East  Level FlightAware Approximate
08:16AM 29.8208 -95.0436 92° East 271 312 10,100  Level Houston Center
08:16AM 29.8183 -95.0214 97° East 277 319 10,500 960 Climbing Houston Center
08:17AM 29.8281 -94.9467 81° East 312 359 11,100 720 Climbing Houston Center
08:18AM 29.8556 -94.8383 74° East 349 402 11,900 1,080 Climbing Houston Center
08:19AM 29.8864 -94.7250 73° East 367 422 13,400 1,440 Climbing Houston Center
08:20AM 29.9153 -94.6125 73° East 367 422 14,900 1,440 Climbing Houston Center
08:21AM 29.9456 -94.4986 73° East 368 423 16,400 1,500 Climbing Houston Center
08:22AM 29.9808 -94.3647 73° East 369 425 18,000 1,260 Climbing Houston Center
08:23AM 30.0036 -94.2489 77° East 371 427 19,000 480 Climbing Houston Center
08:24AM 30.0183 -94.1228 82° East 393 452 19,000  Level Houston Center
08:25AM 30.0339 -93.9894 82° East 417 480 19,000  Level Houston Center
08:26AM 30.0511 -93.8556 82° East 421 484 19,000  Level Houston Center
08:27AM 30.0678 -93.7239 82° East 421 484 19,000  Level Houston Center
08:28AM 30.0822 -93.5939 83° East 416 479 19,000  Level Houston Center
08:29AM 30.1022 -93.4394 81° East 414 476 19,000  Level Houston Center
08:30AM 30.1175 -93.3092 82° East 414 476 19,000  Level Houston Center
08:31AM 30.1342 -93.1789 82° East 414 476 19,000  Level Houston Center
08:32AM 30.1458 -93.0467 84° East 415 478 19,000  Level Houston Center
08:33AM 30.1536 -92.8989 86° East 415 478 19,000 -840 Level Houston Center
08:34AM 30.1603 -92.7581 87° East 410 472 17,400 -2,220 Descending Houston Center
08:35AM 30.1661 -92.6383 87° East 382 440 14,500 -3,000 Descending Houston Center
08:36AM 30.1722 -92.5072 87° East 382 440 11,300 -2,280 Descending Houston Center
08:37AM 30.1761 -92.3994 88° East 340 391 9,800 -1,860 Descending Houston Center
08:38AM 30.1453 -92.3161 113° Southeast 266 306 7,500 -2,700 Descending Houston Center
08:40AM 30.1153 -92.2381 114° Southeast 254 292 4,300 -2,700 Descending Houston Center
08:41AM 30.0997 -92.1683 104° East 237 273 2,000 -1,260 Descending Houston Center
08:42AM 30.1236 -92.0931 70° East 232 267 1,700 -360 Descending Houston Center
08:43AM 30.1469 -92.0397 63° Northeast 189 217 1,300 -660 Descending Houston Center
08:44AM 30.1789 -92.0100 39° Northeast 142 163 400 -900 Descending Houston Center